Station: Iron Bridge Mine  

  Atmospheric Gas Attenuation - ITU Rec 676-11   ----------------- dB/100km -----------------
Date Time Temp RH % AH g/m3 Dew Point Wind Direction Speed kph Gust kph Barometer mB Rainfall Since 9am 24GHz 47GHz 76GHz 122GHz 134GHz 241GHz
08/05 09:20 23.6 23 4.89 1.3 33 44 1013.1 0 11.4 18.3 23.1 59.9 46.8 158.5
08/05 09:10 23.1 23 4.75 0.9 30 48 1020.7 0 11.1 18.4 23.0 59.6 46.0 155.5
08/05 09:00 22.7 24 4.85 1.1 32 46 1020.7 0 11.4 18.6 23.4 60.8 47.2 159.8
08/05 08:50 22.6 23 4.62 0.8 28 39 1013.1 0 10.9 18.1 22.5 58.4 44.6 150.7
08/05 08:40 22.5 23 4.59 0.7 28 39 1013.1 0 10.8 18.1 22.5 58.2 44.4 149.8
08/05 08:30 22.2 24 4.71 0.7 30 39 1020.7 0 11.1 18.6 23.2 60.0 46.1 155.7
08/05 08:20 21.9 24 4.63 0.5 26 30 1013.1 0 10.9 18.3 22.8 59.0 45.1 152.3
08/05 08:10 21.9 24 4.63 0.5 22 30 1013.1 0 10.9 18.3 22.8 59.0 45.1 152.3
08/05 08:00 21.6 24 4.55 0.2 22 39 1020.6 0 10.8 18.5 22.8 59.1 44.8 151.0
08/05 07:50 21.4 24 4.5 0.3 20 22 1013.1 0 10.7 18.2 22.5 58.3 44.0 148.6
08/05 07:40 21.7 24 4.58 0.3 26 33 1013.1 0 10.8 18.3 22.7 58.7 44.7 150.9
08/05 07:30 21.5 24 4.53 0.1 24 37 1020.3 0 10.7 18.5 22.8 58.9 44.6 150.4
08/05 07:20 21.2 24 4.45 0.1 32 37 1013.1 0 10.6 18.2 22.4 58.0 43.6 147.1
08/05 07:10 21.2 24 4.45 0.1 26 32 1013.1 0 10.6 18.2 22.4 58.0 43.6 147.1
08/05 07:00 20.9 25 4.55 0.2 24 33 1020 0 10.8 18.6 23.0 59.5 45.1 152.2
08/05 06:50 21 24 4.4 -0.1 28 32 1013.1 0 10.5 18.2 22.3 57.7 43.2 145.7
08/05 06:40 20.9 24 4.37 -0.1 22 30 1013.1 0 10.4 18.2 22.2 57.5 43.0 144.8
08/05 06:30 21 24 4.4 -0.3 24 32 1019.7 0 10.5 18.4 22.5 58.2 43.5 146.5
08/05 06:20 21 24 4.4 -0.2 22 26 1013.1 0 10.5 18.2 22.3 57.7 43.2 145.7
08/05 06:10 21.1 24 4.42 -0.3 22 28 1013.1 0 10.5 18.2 22.3 57.8 43.4 146.2
08/05 06:00 21.2 24 4.45 -0.1 22 32 1019.4 0 10.6 18.4 22.6 58.4 43.9 147.9
08/05 05:50 21.3 23 4.29 -0.3 24 28 1013.1 0 10.2 18.0 21.9 56.6 42.0 141.2
08/05 05:40 21.3 23 4.29 -0.4 24 32 1013.1 0 10.2 18.0 21.9 56.6 42.0 141.2
08/05 05:30 21.4 23 4.31 -0.6 20 30 1019.2 0 10.3 18.2 22.1 57.1 42.4 142.5
08/05 05:19 21.5 23 4.34 -0.5 22 26 1013.1 0 10.3 18.0 22.0 56.9 42.4 142.7
08/05 05:10 21.5 23 4.34 -0.5 24 30 1013.1 0 10.3 18.0 22.0 56.9 42.4 142.7
08/05 05:00 21.6 23 4.36 -0.4 24 32 1019 0 10.4 18.2 22.2 57.4 42.8 144.0
08/05 04:50 21.8 22 4.22 -0.6 24 26 1013.1 0 10.1 17.8 21.5 55.7 41.0 137.9
08/05 04:40 21.7 22 4.2 -0.7 22 24 1013.1 0 10.0 17.8 21.5 55.6 40.9 137.4
08/05 04:30 21.9 22 4.24 -0.8 26 35 1018.6 0 10.1 18.0 21.7 56.2 41.4 139.1
08/05 04:20 22.1 21 4.1 -0.8 28 32 1013.1 0 9.8 17.6 21.1 54.5 39.7 133.2
08/05 04:10 22.1 21 4.1 -0.9 24 28 1013.1 0 9.8 17.6 21.1 54.5 39.7 133.2
08/05 04:00 22.3 21 4.15 -1.1 24 35 1018.4 0 9.9 17.8 21.4 55.2 40.3 135.3
08/05 03:50 22.3 21 4.15 -1 22 28 1013.1 0 9.9 17.6 21.2 54.8 40.1 134.7
08/05 03:40 22.4 21 4.17 -1.1 26 33 1013.1 0 10.0 17.6 21.2 54.9 40.2 135.2
08/05 03:30 22.4 21 4.17 -1 24 37 1018.4 0 10.0 17.8 21.4 55.3 40.4 135.8
08/05 03:20 22.5 20 3.99 -1.1 24 28 1013.1 0 9.6 17.4 20.7 53.4 38.4 128.8
08/05 03:10 22.6 20 4.02 -1.1 22 26 1013.1 0 9.6 17.4 20.7 53.6 38.6 129.7
08/05 03:00 22.5 21 4.19 -0.9 22 32 1018.4 0 10.0 17.8 21.4 55.4 40.6 136.4
08/05 02:50 22.5 20 3.99 -1.2 22 26 1013.1 0 9.6 17.4 20.7 53.4 38.4 128.8
08/05 02:40 22.5 20 3.99 -1.2 28 33 1013.1 0 9.6 17.4 20.7 53.4 38.4 128.8
08/05 02:30 22.5 20 3.99 -1.6 26 39 1018.3 0 9.6 17.5 20.8 53.7 38.6 129.4
08/05 02:20 22.6 20 4.02 -1.3 26 33 1013.1 0 9.6 17.4 20.7 53.6 38.6 129.7
08/05 02:10 22.7 20 4.04 -1.4 22 30 1013.1 0 9.7 17.4 20.8 53.7 38.8 130.2
08/05 02:00 22.8 20 4.06 -1.3 24 33 1018.4 0 9.7 17.6 21.0 54.1 39.1 131.4
08/05 01:50 23 19 3.9 -1.4 24 32 1013.1 0 9.4 17.2 20.3 52.4 37.3 124.9
08/05 01:40 23.1 19 3.93 -1.5 28 33 1013.1 0 9.4 17.2 20.3 52.6 37.5 125.8
08/05 01:30 23.1 19 3.93 -1.8 26 37 1018.4 0 9.4 17.4 20.5 52.9 37.7 126.4
08/05 01:20 23.3 19 3.97 -1.6 24 28 1013.1 0 9.5 17.2 20.4 52.7 37.8 126.9
08/05 01:10 23.4 19 4 -1.7 22 24 1013.1 0 9.6 17.2 20.5 52.9 38.1 127.8
08/05 01:00 23.5 19 4.02 -1.4 24 32 1018.5 0 9.6 17.4 20.7 53.4 38.4 128.9
08/05 00:50 23.6 18 3.83 -1.7 22 24 1013.1 0 9.2 17.0 19.9 51.5 36.3 121.7
08/05 00:40 23.7 18 3.85 -1.8 22 26 1013.1 0 9.3 17.0 20.0 51.6 36.5 122.2
08/05 00:30 23.8 18 3.87 -1.9 22 30 1018.5 0 9.3 17.2 20.2 52.0 36.8 123.3
08/05 00:20 23.9 18 3.89 -2 22 26 1013.1 0 9.3 17.0 20.0 51.7 36.8 123.3
08/05 00:10 23.9 17 3.68 -2.1 24 30 1013.1 0 8.9 16.8 19.4 50.1 34.8 116.2
08/05 00:00 24 18 3.92 -1.8 20 30 1018.6 0 9.4 17.2 20.3 52.3 37.2 124.8
07/05 23:50 24.1 17 3.72 -2.1 19 20 1013.1 0 9.0 16.8 19.5 50.3 35.1 117.2
07/05 23:40 24.2 17 3.74 -2.1 22 28 1013.1 0 9.0 16.8 19.5 50.4 35.2 117.8
07/05 23:30 24.4 17 3.78 -2.2 24 33 1018.6 0 9.1 17.0 19.8 50.9 35.7 119.5
07/05 23:20 24.4 17 3.78 -2.2 24 30 1013.1 0 9.1 16.8 19.6 50.6 35.5 118.9
07/05 23:10 24.5 17 3.8 -2.2 26 32 1013.1 0 9.1 16.8 19.6 50.7 35.7 119.4
07/05 23:00 24.7 17 3.85 -2 24 39 1018.7 0 9.2 17.0 19.9 51.3 36.3 121.4
07/05 22:50 24.8 16 3.64 -2.1 24 30 1013.1 0 8.8 16.6 19.1 49.3 34.0 113.6
07/05 22:40 24.9 17 3.89 -2 28 32 1013.1 0 9.3 16.8 19.8 51.1 36.4 121.8
07/05 22:30 25.1 17 3.94 -1.6 26 33 1018.7 0 9.4 17.0 20.1 51.8 36.9 123.9
07/05 22:20 24.9 17 3.89 -1.7 19 24 1013.1 0 9.3 16.8 19.8 51.1 36.4 121.8
07/05 22:10 25.1 17 3.94 -1.6 24 30 1013.1 0 9.4 16.9 19.9 51.4 36.7 123.2
07/05 22:00 25.2 18 4.19 -0.8 26 35 1018.5 0 9.9 17.3 20.8 53.6 39.3 132.1
07/05 21:50 25.3 18 4.21 -0.7 20 24 1013.1 0 10.0 17.2 20.6 53.4 39.2 132.0
07/05 21:40 25.4 18 4.24 -0.6 22 28 1013.1 0 10.0 17.2 20.7 53.5 39.5 132.9
07/05 21:30 25.5 18 4.26 -0.5 24 35 1018.4 0 10.1 17.3 20.9 54.0 39.8 134.0
07/05 21:20 25.6 18 4.29 -0.1 26 33 1013.1 0 10.1 17.2 20.8 53.8 39.9 134.3
07/05 21:10 25.9 18 4.36 0.1 32 37 1013.1 0 10.2 17.2 20.9 54.1 40.4 136.1
07/05 21:00 26.1 19 4.65 0.7 26 35 1018.1 0 10.8 17.7 21.9 56.6 43.3 146.3
07/05 20:50 26.2 19 4.68 0.8 28 32 1013.1 0 10.9 17.6 21.8 56.4 43.3 146.5
07/05 20:40 26.2 19 4.68 1.2 20 24 1013.1 0 10.9 17.6 21.8 56.4 43.3 146.5
07/05 20:30 26.2 20 4.92 1.5 20 28 1017.9 0 11.4 18.0 22.6 58.7 45.8 155.4
07/05 20:20 26.5 19 4.76 1.4 19 20 1013.1 0 11.1 17.6 21.9 56.9 43.9 148.7
07/05 20:10 26.3 20 4.95 1.7 19 22 1013.1 0 11.5 17.9 22.5 58.5 45.9 155.6
07/05 20:00 26.3 21 5.2 2.3 15 24 1017.6 0 12.0 18.3 23.4 60.8 48.5 164.8
07/05 19:50 26.3 21 5.2 2.3 11 13 1013.1 0 12.0 18.2 23.3 60.5 48.3 164.2
07/05 19:40 26.6 21 5.29 2.5 15 19 1013.1 0 12.1 18.2 23.5 61.0 49.0 166.7
07/05 19:30 26.7 21 5.32 2.6 17 24 1017.3 0 12.2 18.4 23.7 61.4 49.5 168.2
07/05 19:20 26.9 21 5.37 2.8 20 26 1013.1 0 12.3 18.3 23.6 61.4 49.6 168.9
07/05 19:10 26.7 21 5.32 2.8 13 17 1013.1 0 12.2 18.2 23.5 61.1 49.3 167.6
07/05 19:00 26.9 21 5.37 2.7 17 22 1017 0 12.3 18.4 23.7 61.7 49.8 169.5
07/05 18:50 26.9 21 5.37 3.1 17 24 1013.1 0 12.3 18.3 23.6 61.4 49.6 168.9
07/05 18:40 27.1 21 5.43 3.4 13 15 1013.1 0 12.4 18.3 23.7 61.7 50.1 170.6
07/05 18:30 27.2 22 5.73 3.7 17 26 1016.6 0 13.0 18.7 24.7 64.3 53.2 181.4
07/05 18:20 27.2 22 5.73 3.7 17 22 1013.1 0 13.0 18.6 24.6 64.1 53.0 180.8
07/05 18:10 27.5 21 5.56 3.7 24 28 1013.1 0 12.7 18.4 24.0 62.5 51.2 174.3
07/05 18:00 27.6 21 5.59 3.3 22 32 1016.1 0 12.7 18.5 24.2 62.9 51.5 175.6
07/05 17:50 27.7 21 5.62 3.8 20 30 1013.1 0 12.8 18.4 24.1 62.8 51.6 175.9
07/05 17:40 28 21 5.71 3.7 24 30 1013.1 0 13.0 18.5 24.3 63.3 52.3 178.4
07/05 17:30 28.2 21 5.77 3.8 22 32 1015.8 0 13.1 18.6 24.5 63.8 52.9 180.5
07/05 17:20 28.4 20 5.56 3.6 26 32 1013.1 0 12.6 18.2 23.8 61.8 50.6 172.4
07/05 17:10 28.5 20 5.59 3.7 20 28 1013.1 0 12.7 18.2 23.8 62.0 50.8 173.3
07/05 17:00 28.8 20 5.68 3.6 22 32 1015.5 0 12.9 18.3 24.1 62.6 51.6 176.1
07/05 16:50 28.9 20 5.71 3.6 24 28 1013.1 0 12.9 18.3 24.1 62.6 51.8 176.6

Last Refresh: 08-May-2026 11:02:54

Bureau of Meteorology